createdAt,value
2022-12-18T00:01:46.757Z,-4.83
2022-12-18T00:04:31.929Z,-4.83
2022-12-18T00:07:21.980Z,-4.86
2022-12-18T00:09:55.474Z,-4.87
2022-12-18T00:12:48.328Z,-4.91
2022-12-18T00:15:23.783Z,-4.83
2022-12-18T00:18:00.652Z,-4.78
2022-12-18T00:24:05.101Z,-4.78
2022-12-18T00:26:53.247Z,-4.81
2022-12-18T00:29:44.765Z,-4.90
2022-12-18T00:32:50.215Z,-5.08
2022-12-18T00:35:39.381Z,-5.00
2022-12-18T00:38:32.130Z,-4.94
2022-12-18T00:41:47.920Z,-4.95
2022-12-18T00:44:22.853Z,-5.10
2022-12-18T00:47:22.867Z,-5.00
2022-12-18T00:50:03.248Z,-4.99
2022-12-18T00:53:05.270Z,-5.08
2022-12-18T00:55:35.838Z,-5.13
2022-12-18T00:58:06.058Z,-5.17
2022-12-18T01:00:39.424Z,-5.12
2022-12-18T01:03:35.865Z,-5.01
2022-12-18T01:07:27.485Z,-5.17
2022-12-18T01:10:46.597Z,-5.19
2022-12-18T01:13:59.414Z,-5.16
2022-12-18T01:16:40.390Z,-5.02
2022-12-18T01:19:43.363Z,-4.97
2022-12-18T01:25:28.781Z,-4.83
2022-12-18T01:28:23.887Z,-4.77
2022-12-18T01:31:09.983Z,-4.66
2022-12-18T01:34:00.549Z,-4.65
2022-12-18T01:37:06.239Z,-4.71
2022-12-18T01:39:42.346Z,-4.56
2022-12-18T01:42:18.251Z,-4.57
2022-12-18T01:45:06.306Z,-4.60
2022-12-18T01:47:54.029Z,-4.75
2022-12-18T01:50:35.038Z,-4.56
2022-12-18T01:53:12.398Z,-4.54
2022-12-18T01:55:52.149Z,-4.55
2022-12-18T01:59:09.869Z,-4.58
2022-12-18T02:01:59.028Z,-4.43
2022-12-18T02:08:24.076Z,-4.31
2022-12-18T02:11:08.017Z,-4.44
2022-12-18T02:13:49.605Z,-4.37
2022-12-18T02:17:02.650Z,-4.28
2022-12-18T02:20:02.864Z,-4.53
2022-12-18T02:23:14.144Z,-4.49
2022-12-18T02:26:12.018Z,-4.42
2022-12-18T02:36:53.049Z,-4.14
2022-12-18T02:39:31.671Z,-4.06
2022-12-18T02:42:44.388Z,-4.12
2022-12-18T02:45:37.062Z,-4.09
2022-12-18T02:48:28.562Z,-4.12
2022-12-18T02:51:17.725Z,-4.22
2022-12-18T02:54:06.174Z,-4.28
2022-12-18T02:56:48.687Z,-4.39
2022-12-18T02:59:34.066Z,-4.35
2022-12-18T03:02:21.444Z,-4.34
2022-12-18T03:04:58.982Z,-4.32
2022-12-18T03:08:04.027Z,-4.28
2022-12-18T03:10:42.437Z,-4.28
2022-12-18T03:13:24.742Z,-4.32
2022-12-18T03:16:14.781Z,-4.31
2022-12-18T03:18:49.537Z,-4.32
2022-12-18T03:21:23.881Z,-4.39
2022-12-18T03:24:16.529Z,-4.57
2022-12-18T03:27:04.819Z,-4.45
2022-12-18T03:30:08.590Z,-4.51
2022-12-18T03:32:49.029Z,-4.50
2022-12-18T03:35:32.991Z,-4.49
2022-12-18T03:38:06.061Z,-4.46
2022-12-18T03:40:45.833Z,-4.30
2022-12-18T03:43:49.167Z,-4.25
2022-12-18T03:46:30.156Z,-4.40
2022-12-18T03:49:05.340Z,-4.51
2022-12-18T03:51:49.776Z,-4.36
2022-12-18T03:54:24.916Z,-4.35
2022-12-18T03:57:03.764Z,-4.27
2022-12-18T03:59:40.545Z,-4.39
2022-12-18T04:02:11.226Z,-4.32
2022-12-18T04:04:46.511Z,-4.29
2022-12-18T04:07:44.793Z,-4.19
2022-12-18T04:10:28.840Z,-4.22
2022-12-18T04:13:01.419Z,-4.21
2022-12-18T04:15:38.553Z,-4.30
2022-12-18T04:18:13.229Z,-4.24
2022-12-18T04:20:49.304Z,-4.29
2022-12-18T04:23:29.550Z,-4.37
2022-12-18T04:26:01.187Z,-4.34
2022-12-18T04:28:49.654Z,-4.25
2022-12-18T04:31:21.792Z,-4.18
2022-12-18T04:33:51.243Z,-4.10
2022-12-18T04:36:22.372Z,-4.05
2022-12-18T04:38:51.775Z,-4.06
2022-12-18T04:41:21.588Z,-4.18
2022-12-18T04:43:54.681Z,-4.19
2022-12-18T04:46:26.508Z,-4.09
2022-12-18T04:48:55.927Z,-4.13
2022-12-18T04:51:29.344Z,-4.17
2022-12-18T04:54:01.405Z,-4.28
2022-12-18T04:56:43.406Z,-4.23
2022-12-18T05:02:43.657Z,-4.12
2022-12-18T05:05:33.770Z,-4.07
2022-12-18T05:08:52.101Z,-4.00
2022-12-18T05:11:55.058Z,-4.05
2022-12-18T05:14:36.263Z,-4.03
2022-12-18T05:17:05.769Z,-4.06
2022-12-18T05:19:43.550Z,-4.04
2022-12-18T05:22:13.283Z,-4.14
2022-12-18T05:25:06.341Z,-4.20
2022-12-18T05:27:44.586Z,-4.18
2022-12-18T05:30:21.633Z,-4.32
2022-12-18T05:32:58.566Z,-4.25
2022-12-18T05:35:33.962Z,-4.29
2022-12-18T05:38:06.332Z,-4.31
2022-12-18T05:40:38.209Z,-4.41
2022-12-18T05:43:07.572Z,-4.23
2022-12-18T05:45:40.599Z,-4.11
2022-12-18T05:48:21.559Z,-4.06
2022-12-18T05:50:52.093Z,-4.07
2022-12-18T05:53:22.749Z,-4.12
2022-12-18T05:55:56.730Z,-4.29
2022-12-18T05:58:51.409Z,-4.28
2022-12-18T06:01:30.729Z,-4.26
2022-12-18T06:04:21.778Z,-4.29
2022-12-18T06:06:52.819Z,-4.26
2022-12-18T06:09:52.637Z,-4.24
2022-12-18T06:12:40.060Z,-4.35
2022-12-18T06:15:45.445Z,-4.40
2022-12-18T06:18:24.490Z,-4.31
2022-12-18T06:20:58.652Z,-4.38
2022-12-18T06:23:37.787Z,-4.44
2022-12-18T06:26:10.266Z,-4.37
2022-12-18T06:28:43.534Z,-4.29
2022-12-18T06:31:27.198Z,-4.26
2022-12-18T06:33:59.975Z,-4.35
2022-12-18T06:36:33.473Z,-4.31
2022-12-18T06:39:30.116Z,-4.18
2022-12-18T06:42:25.325Z,-4.17
2022-12-18T06:44:55.960Z,-4.13
2022-12-18T06:47:25.054Z,-4.12
2022-12-18T06:50:06.665Z,-4.18
2022-12-18T06:52:40.779Z,-4.21
2022-12-18T06:55:14.462Z,-4.27
2022-12-18T06:57:44.379Z,-4.35
2022-12-18T07:00:19.108Z,-4.35
2022-12-18T07:02:49.108Z,-4.41
2022-12-18T07:05:21.705Z,-4.32
2022-12-18T07:07:51.719Z,-4.40
2022-12-18T07:10:30.851Z,-4.47
2022-12-18T07:13:44.157Z,-4.38
2022-12-18T07:16:54.183Z,-4.36
2022-12-18T07:19:43.513Z,-4.37
2022-12-18T07:22:35.450Z,-4.49
2022-12-18T07:25:33.189Z,-4.44
2022-12-18T07:28:02.925Z,-4.60
2022-12-18T07:31:01.715Z,-4.56
2022-12-18T07:34:23.004Z,-4.59
2022-12-18T07:36:56.125Z,-4.55
2022-12-18T07:39:34.848Z,-4.53
2022-12-18T07:42:47.247Z,-4.46
2022-12-18T07:46:40.026Z,-4.35
2022-12-18T07:49:13.624Z,-4.44
2022-12-18T07:51:51.011Z,-4.48
2022-12-18T07:54:29.427Z,-4.49
2022-12-18T07:57:07.462Z,-4.49
2022-12-18T07:59:59.880Z,-4.57
2022-12-18T08:02:30.909Z,-4.57
2022-12-18T08:05:03.978Z,-4.44
2022-12-18T08:07:41.200Z,-4.35
2022-12-18T08:10:11.932Z,-4.35
2022-12-18T08:12:42.356Z,-4.32
2022-12-18T08:15:31.216Z,-4.39
2022-12-18T08:18:14.465Z,-4.22
2022-12-18T08:20:49.005Z,-4.25
2022-12-18T08:23:28.946Z,-4.24
2022-12-18T08:26:11.039Z,-4.07
2022-12-18T08:28:47.496Z,-4.16
2022-12-18T08:31:23.447Z,-4.05
2022-12-18T08:33:55.413Z,-4.09
2022-12-18T08:36:31.471Z,-4.14
2022-12-18T08:39:12.857Z,-4.15
2022-12-18T08:42:11.546Z,-4.08
2022-12-18T08:44:54.058Z,-4.21
2022-12-18T08:47:29.299Z,-4.13
2022-12-18T08:49:59.008Z,-4.20
2022-12-18T08:52:34.249Z,-4.14
2022-12-18T08:55:03.889Z,-4.12
2022-12-18T08:57:35.193Z,-4.13
2022-12-18T09:00:08.909Z,-4.02
2022-12-18T09:02:38.592Z,-3.94
2022-12-18T09:05:14.274Z,-3.80
2022-12-18T09:07:54.405Z,-3.92
2022-12-18T09:10:33.151Z,-3.84
2022-12-18T09:13:03.042Z,-3.84
2022-12-18T09:15:53.973Z,-3.72
2022-12-18T09:18:36.450Z,-3.79
2022-12-18T09:21:11.521Z,-3.69
2022-12-18T09:23:46.108Z,-3.93
2022-12-18T09:26:18.520Z,-3.86
2022-12-18T09:28:51.709Z,-3.97
2022-12-18T09:31:44.117Z,-3.97
2022-12-18T09:34:39.466Z,-4.06
2022-12-18T09:37:16.445Z,-4.04
2022-12-18T09:39:48.010Z,-4.04
2022-12-18T09:42:38.299Z,-4.06
2022-12-18T09:45:28.386Z,-3.91
2022-12-18T09:48:03.811Z,-3.80
2022-12-18T09:50:37.328Z,-3.76
2022-12-18T09:53:10.316Z,-3.68
2022-12-18T09:55:50.411Z,-3.61
2022-12-18T09:58:26.381Z,-3.59
2022-12-18T10:00:58.989Z,-3.76
2022-12-18T10:04:28.256Z,-3.76
2022-12-18T10:06:54.943Z,-3.75
2022-12-18T10:09:32.755Z,-3.66
2022-12-18T10:12:12.192Z,-3.57
2022-12-18T10:15:06.072Z,-3.54
2022-12-18T10:17:44.490Z,-3.65
2022-12-18T10:20:49.019Z,-3.77
2022-12-18T10:24:10.419Z,-3.53
2022-12-18T10:27:34.094Z,-3.45
2022-12-18T10:30:23.105Z,-3.45
2022-12-18T10:33:04.075Z,-3.51
2022-12-18T10:35:40.761Z,-3.42
2022-12-18T10:41:34.416Z,-3.47
2022-12-18T10:44:21.441Z,-3.74
2022-12-18T10:46:52.182Z,-3.51
2022-12-18T10:49:50.351Z,-3.46
2022-12-18T10:52:21.597Z,-3.49
2022-12-18T10:54:56.635Z,-3.46
2022-12-18T10:57:38.833Z,-3.41
2022-12-18T11:00:27.695Z,-3.38
2022-12-18T11:03:00.412Z,-3.42
2022-12-18T11:05:32.965Z,-3.41
2022-12-18T11:08:08.296Z,-3.38
2022-12-18T11:10:53.654Z,-3.30
2022-12-18T11:13:35.162Z,-3.09
2022-12-18T11:16:06.752Z,-3.26
2022-12-18T11:18:37.352Z,-2.94
2022-12-18T11:21:14.123Z,-2.81
2022-12-18T11:23:49.165Z,-2.69
2022-12-18T11:26:19.383Z,-2.74
2022-12-18T11:28:52.168Z,-2.57
2022-12-18T11:31:26.226Z,-2.48
2022-12-18T11:34:27.991Z,-2.50
2022-12-18T11:36:55.921Z,-2.79
2022-12-18T11:39:33.183Z,-2.72
2022-12-18T11:42:13.069Z,-2.82
2022-12-18T11:44:48.683Z,-2.76
2022-12-18T11:47:29.572Z,-2.78
2022-12-18T11:50:01.414Z,-2.95
2022-12-18T11:52:35.990Z,-3.06
2022-12-18T11:55:13.202Z,-2.95
2022-12-18T11:57:50.325Z,-2.84
2022-12-18T12:00:39.896Z,-2.75
2022-12-18T12:06:35.133Z,-2.73
2022-12-18T12:09:12.611Z,-2.70
2022-12-18T12:12:09.985Z,-2.78
2022-12-18T12:14:50.350Z,-2.82
2022-12-18T12:17:34.903Z,-2.68
2022-12-18T12:20:13.221Z,-2.68
2022-12-18T12:22:46.921Z,-2.69
2022-12-18T12:25:24.379Z,-2.69
2022-12-18T12:28:04.676Z,-2.58
2022-12-18T12:30:39.402Z,-2.62
2022-12-18T12:33:21.817Z,-2.55
2022-12-18T12:36:24.187Z,-2.63
2022-12-18T12:38:57.482Z,-2.58
2022-12-18T12:41:46.656Z,-2.62
2022-12-18T12:44:19.737Z,-2.64
2022-12-18T12:47:23.457Z,-2.55
2022-12-18T12:49:57.607Z,-2.57
2022-12-18T12:52:33.900Z,-2.67
2022-12-18T12:55:17.675Z,-3.02
2022-12-18T12:57:53.322Z,-2.96
2022-12-18T13:00:23.338Z,-3.03
2022-12-18T13:02:55.509Z,-3.20
2022-12-18T13:05:28.083Z,-3.18
2022-12-18T13:11:59.732Z,-3.15
2022-12-18T13:14:32.869Z,-3.07
2022-12-18T13:17:48.858Z,-3.07
2022-12-18T13:20:22.038Z,-3.39
2022-12-18T13:22:52.991Z,-3.19
2022-12-18T13:25:37.959Z,-3.05
2022-12-18T13:28:14.443Z,-3.02
2022-12-18T13:31:03.267Z,-2.89
2022-12-18T13:34:24.522Z,-2.99
2022-12-18T13:37:46.008Z,-2.79
2022-12-18T13:41:00.104Z,-2.71
2022-12-18T13:43:33.968Z,-2.68
2022-12-18T13:46:26.843Z,-2.67
2022-12-18T13:49:13.348Z,-2.81
2022-12-18T13:51:45.824Z,-2.84
2022-12-18T13:54:42.748Z,-3.10
2022-12-18T13:57:28.748Z,-3.14
2022-12-18T14:00:31.761Z,-3.06
2022-12-18T14:03:02.260Z,-3.10
2022-12-18T14:06:01.427Z,-3.18
2022-12-18T14:08:52.707Z,-3.15
2022-12-18T14:11:35.840Z,-3.18
2022-12-18T14:14:16.807Z,-3.21
2022-12-18T14:16:56.859Z,-3.17
2022-12-18T14:19:40.802Z,-3.21
2022-12-18T14:22:31.000Z,-3.06
2022-12-18T14:25:26.413Z,-3.02
2022-12-18T14:28:47.728Z,-2.98
2022-12-18T14:31:21.268Z,-3.10
2022-12-18T14:33:55.448Z,-3.20
2022-12-18T14:36:31.712Z,-3.21
2022-12-18T14:39:03.653Z,-3.33
2022-12-18T14:41:34.307Z,-3.40
2022-12-18T14:44:12.108Z,-3.37
2022-12-18T14:47:00.557Z,-3.46
2022-12-18T14:49:59.750Z,-3.48
2022-12-18T14:52:34.383Z,-3.82
2022-12-18T14:55:04.109Z,-3.69
2022-12-18T14:57:41.489Z,-3.57
2022-12-18T15:00:20.621Z,-3.59
2022-12-18T15:02:53.303Z,-3.59
2022-12-18T15:05:31.283Z,-3.75
2022-12-18T15:08:03.385Z,-3.56
2022-12-18T15:10:33.701Z,-3.41
2022-12-18T15:13:32.980Z,-3.26
2022-12-18T15:16:14.372Z,-3.40
2022-12-18T15:18:49.222Z,-3.41
2022-12-18T15:21:21.794Z,-3.56
2022-12-18T15:23:57.037Z,-3.73
2022-12-18T15:26:57.376Z,-3.57
2022-12-18T15:30:14.997Z,-3.53
2022-12-18T15:32:52.874Z,-3.67
2022-12-18T15:35:34.899Z,-3.48
2022-12-18T15:38:29.172Z,-3.37
2022-12-18T15:41:14.466Z,-3.37
2022-12-18T15:44:18.272Z,-3.32
2022-12-18T15:46:50.555Z,-3.24
2022-12-18T15:49:20.766Z,-3.19
2022-12-18T15:52:09.216Z,-3.16
2022-12-18T15:55:36.905Z,-3.19
2022-12-18T15:58:15.514Z,-3.53
2022-12-18T16:00:45.835Z,-3.35
2022-12-18T16:03:21.589Z,-3.40
2022-12-18T16:06:12.498Z,-3.40
2022-12-18T16:08:49.473Z,-3.66
2022-12-18T16:11:47.346Z,-3.59
2022-12-18T16:14:20.643Z,-3.50
2022-12-18T16:16:56.802Z,-3.58
2022-12-18T16:19:27.407Z,-3.45
2022-12-18T16:22:01.967Z,-3.44
2022-12-18T16:24:37.346Z,-3.55
2022-12-18T16:27:12.962Z,-3.68
2022-12-18T16:29:57.203Z,-3.80
2022-12-18T16:32:30.293Z,-3.71
2022-12-18T16:35:26.118Z,-3.55
2022-12-18T16:38:13.441Z,-3.49
2022-12-18T16:41:36.815Z,-3.50
2022-12-18T16:44:19.201Z,-3.50
2022-12-18T16:46:50.916Z,-3.57
2022-12-18T16:49:26.423Z,-3.47
2022-12-18T16:52:08.421Z,-3.54
2022-12-18T16:54:48.887Z,-3.66
2022-12-18T16:57:32.422Z,-3.63
2022-12-18T17:00:07.947Z,-3.57
2022-12-18T17:02:45.181Z,-3.64
2022-12-18T17:05:26.745Z,-3.53
2022-12-18T17:08:02.598Z,-3.57
2022-12-18T17:10:49.838Z,-3.48
2022-12-18T17:13:31.307Z,-3.44
2022-12-18T17:16:17.976Z,-3.43
2022-12-18T17:18:53.056Z,-3.45
2022-12-18T17:21:47.534Z,-3.34
2022-12-18T17:24:23.429Z,-3.64
2022-12-18T17:26:52.790Z,-3.95
2022-12-18T17:29:25.689Z,-3.76
2022-12-18T17:32:26.644Z,-3.68
2022-12-18T17:35:19.079Z,-3.64
2022-12-18T17:38:17.291Z,-3.65
2022-12-18T17:41:22.907Z,-3.44
2022-12-18T17:44:00.098Z,-3.42
2022-12-18T17:46:40.305Z,-3.38
2022-12-18T17:49:20.816Z,-3.45
2022-12-18T17:51:51.734Z,-3.51
2022-12-18T17:54:53.838Z,-3.49
2022-12-18T17:57:26.386Z,-3.63
2022-12-18T18:00:17.718Z,-3.48
2022-12-18T18:02:47.489Z,-3.73
2022-12-18T18:05:41.818Z,-3.62
2022-12-18T18:08:16.961Z,-3.40
2022-12-18T18:10:49.204Z,-3.43
2022-12-18T18:13:46.907Z,-3.47
2022-12-18T18:16:19.595Z,-3.42
2022-12-18T18:18:53.862Z,-3.34
2022-12-18T18:21:30.672Z,-3.26
2022-12-18T18:24:05.090Z,-3.18
2022-12-18T18:26:41.933Z,-3.17
2022-12-18T18:29:15.060Z,-3.28
2022-12-18T18:31:47.487Z,-3.18
2022-12-18T18:34:17.693Z,-3.16
2022-12-18T18:36:49.926Z,-3.24
2022-12-18T18:39:26.885Z,-3.28
2022-12-18T18:41:57.745Z,-3.45
2022-12-18T18:44:44.513Z,-3.62
2022-12-18T18:47:18.568Z,-3.61
2022-12-18T18:49:47.767Z,-3.58
2022-12-18T18:52:33.452Z,-3.50
2022-12-18T18:55:20.978Z,-3.60
2022-12-18T18:57:58.576Z,-3.58
2022-12-18T19:01:13.141Z,-3.55
2022-12-18T19:03:43.729Z,-3.49
2022-12-18T19:06:34.169Z,-3.55
2022-12-18T19:09:13.096Z,-3.51
2022-12-18T19:12:06.362Z,-3.48
2022-12-18T19:14:56.244Z,-3.67
2022-12-18T19:17:29.733Z,-3.62
2022-12-18T19:19:59.701Z,-3.86
2022-12-18T19:22:28.858Z,-3.69
2022-12-18T19:25:02.050Z,-3.62
2022-12-18T19:27:36.676Z,-3.64
2022-12-18T19:30:12.738Z,-3.58
2022-12-18T19:32:42.667Z,-3.55
2022-12-18T19:35:12.344Z,-3.52
2022-12-18T19:37:44.736Z,-3.86
2022-12-18T19:40:16.087Z,-3.75
2022-12-18T19:42:47.656Z,-3.78
2022-12-18T19:45:31.274Z,-3.87
2022-12-18T19:48:04.714Z,-4.14
2022-12-18T19:50:34.696Z,-4.13
2022-12-18T19:53:04.491Z,-4.23
2022-12-18T19:55:44.858Z,-4.27
2022-12-18T19:58:16.549Z,-4.13
2022-12-18T20:00:54.623Z,-4.04
2022-12-18T20:03:30.538Z,-3.83
2022-12-18T20:06:11.363Z,-3.81
2022-12-18T20:08:54.016Z,-3.86
2022-12-18T20:11:41.702Z,-3.79
2022-12-18T20:14:12.253Z,-3.77
2022-12-18T20:16:45.630Z,-3.66
2022-12-18T20:19:23.635Z,-3.58
2022-12-18T20:21:56.728Z,-3.60
2022-12-18T20:24:28.791Z,-3.60
2022-12-18T20:27:02.944Z,-3.55
2022-12-18T20:29:32.823Z,-3.61
2022-12-18T20:32:02.361Z,-3.64
2022-12-18T20:34:31.844Z,-3.76
2022-12-18T20:37:01.037Z,-3.66
2022-12-18T20:39:33.901Z,-3.68
2022-12-18T20:42:06.599Z,-3.71
2022-12-18T20:44:37.540Z,-3.68
2022-12-18T20:47:07.708Z,-3.75
2022-12-18T20:49:44.333Z,-3.83
2022-12-18T20:52:21.010Z,-3.89
2022-12-18T20:54:54.301Z,-3.98
2022-12-18T20:57:29.746Z,-3.99
2022-12-18T21:00:12.571Z,-4.03
2022-12-18T21:02:48.641Z,-4.01
2022-12-18T21:05:21.980Z,-3.98
2022-12-18T21:07:52.206Z,-4.05
2022-12-18T21:10:33.727Z,-4.01
2022-12-18T21:13:06.808Z,-4.09
2022-12-18T21:15:41.245Z,-4.03
2022-12-18T21:18:10.956Z,-4.09
2022-12-18T21:20:40.050Z,-4.28
2022-12-18T21:23:16.218Z,-4.27
2022-12-18T21:25:53.024Z,-4.38
2022-12-18T21:28:42.225Z,-4.45
2022-12-18T21:31:21.307Z,-4.58
2022-12-18T21:33:52.000Z,-4.72
2022-12-18T21:36:31.033Z,-4.62
2022-12-18T21:39:12.439Z,-4.55
2022-12-18T21:42:02.660Z,-4.74
2022-12-18T21:44:43.896Z,-4.61
2022-12-18T21:47:23.473Z,-4.68
2022-12-18T21:50:00.129Z,-4.61
2022-12-18T21:52:32.104Z,-4.49
2022-12-18T21:55:16.033Z,-4.56
2022-12-18T21:57:50.541Z,-4.61
2022-12-18T22:00:24.747Z,-4.73
2022-12-18T22:03:17.407Z,-4.82
2022-12-18T22:06:04.089Z,-4.88
2022-12-18T22:08:43.418Z,-4.82
2022-12-18T22:11:14.817Z,-4.85
2022-12-18T22:13:48.938Z,-5.05
2022-12-18T22:16:30.305Z,-4.93
2022-12-18T22:19:18.155Z,-5.06
2022-12-18T22:21:49.410Z,-5.25
2022-12-18T22:24:20.848Z,-5.16
2022-12-18T22:27:22.512Z,-5.11
2022-12-18T22:30:06.150Z,-4.95
2022-12-18T22:32:40.263Z,-4.92
2022-12-18T22:35:23.381Z,-4.97
2022-12-18T22:38:09.995Z,-4.95
2022-12-18T22:40:48.306Z,-4.93
2022-12-18T22:43:29.583Z,-4.87
2022-12-18T22:46:42.104Z,-5.08
2022-12-18T22:49:39.218Z,-5.12
2022-12-18T22:55:28.633Z,-5.04
2022-12-18T22:58:06.759Z,-5.04
2022-12-18T23:00:45.787Z,-5.02
2022-12-18T23:03:21.906Z,-4.89
2022-12-18T23:06:21.162Z,-4.89
2022-12-18T23:09:03.767Z,-4.82
2022-12-18T23:11:37.575Z,-4.90
2022-12-18T23:14:14.350Z,-4.87
2022-12-18T23:16:44.162Z,-4.79
2022-12-18T23:19:17.767Z,-4.76
2022-12-18T23:21:50.663Z,-5.01
2022-12-18T23:24:38.076Z,-4.85
2022-12-18T23:27:13.334Z,-4.91
2022-12-18T23:29:53.068Z,-4.97
2022-12-18T23:32:43.565Z,-4.96
2022-12-18T23:35:33.630Z,-5.02
2022-12-18T23:38:04.588Z,-4.89
2022-12-18T23:40:34.608Z,-4.81
2022-12-18T23:43:04.422Z,-4.87
2022-12-18T23:45:34.645Z,-4.89
2022-12-18T23:48:07.202Z,-5.00
2022-12-18T23:50:39.436Z,-5.00
2022-12-18T23:53:19.492Z,-4.94
2022-12-18T23:55:49.743Z,-4.84
2022-12-18T23:58:21.929Z,-4.85
